Terminal Aerodrome Forecast
Issued by NWS Raleigh/Durham, NC

Home | Current Version | Previous Version | Text Only | Print | Product List | Glossary On
Versions: 1 2 3 4 5 6 7 8 9 10 11 12 13 14 15 16 17 18 19 20 21 22 23 24 25
000
FTUS42 KRAH 222335
TAFGSO
TAF
KGSO 222335Z 2300/2324 08010KT 3SM BR VCSH OVC002
      TEMPO 2303/2307 6SM -SHRA BR OVC005
     FM230800 12010KT 5SM BR VCSH BKN005 OVC025
      TEMPO 2308/2312 2SM BR OVC002
     FM231200 23006KT P6SM VCSH SCT010 BKN030=

USA.gov is the U.S. government's official web portal to all federal, state and local government web resources and services.